Latest Coastal Weather Observations for Port Macquarie Airport

IDN60701

Issued at 6:45 pm EDT Friday 31 October 2014 (issued every 10 minutes, with the page automatically refreshed every 10 minutes)

About coastal observations | Map of coastal stations | Coastal observations for NSW | Marine services | Other Formats
Station Details ID: 060139 Name: PORT MACQUARIE AIRPORT AWS Lat: -31.43 Lon: 152.87 Height: 4.2 m
Data from the previous 72 hours. | See also: Recent months at Port Macquarie Airport
Date/Time
EDT
Temp

°C
Wind Pressure Rain
since 9am
mm
Weather Cloud Vis
km
Sea
Height
m
Swell
Dir
 
Speed
knots
Gust
knots
hPa Trend Height
m
Period
s
Dir
31/06:30pm 24.0 NNE 9 12 1009.9 - 0.0 - - 10 - - - -
31/06:00pm 25.1 NNE 9 14 1009.8 - 0.0 - - 10 - - - -
31/05:30pm 25.0 NE 13 17 1009.6 - 0.0 - - 10 - - - -
31/05:00pm 25.7 NNE 14 19 1009.5 - 0.0 - - 10 - - - -
31/04:30pm 25.9 NNE 17 22 1009.4 - 0.0 - - 10 - - - -
31/04:09pm 25.8 NNE 15 25 1009.5 - 0.0 - - 10 - - - -
31/04:00pm 26.4 NNE 15 24 1009.6 - 0.0 - - 10 - - - -
31/03:30pm 26.9 NNE 16 25 1009.7 - 0.0 - - 10 - - - -
31/03:20pm 26.6 NE 15 25 1009.8 - 0.0 - - 10 - - - -
31/03:00pm 26.7 NE 15 20 1010.1 - 0.0 - - 10 - - - -
31/02:30pm 27.3 NE 12 20 1010.6 - 0.0 - - 10 - - - -
31/02:00pm 26.2 ENE 15 19 1011.2 - 0.0 - - 10 - - - -
31/01:30pm 27.0 ENE 13 16 1011.8 - 0.0 - - 10 - - - -
31/01:00pm 26.2 ENE 13 17 1012.3 - 0.0 - - 10 - - - -
31/12:30pm 26.9 ENE 13 16 1012.7 - 0.0 - - 10 - - - -
31/12:00pm 26.0 E 11 14 1013.1 - 0.0 - Mostly clear 10 - - - -
31/11:30am 25.6 ENE 9 11 1013.6 - 0.0 - - 10 - - - -
31/11:00am 24.8 ENE 9 11 1014.0 - 0.0 - - 10 - - - -
31/10:30am 24.9 ENE 8 10 1014.2 - 0.0 - - 10 - - - -
31/10:00am 24.1 ENE 6 8 1014.5 - 0.0 - - 10 - - - -
31/09:30am 23.9 NNE 4 7 1014.6 - 0.0 - - 10 - - - -
31/09:00am 21.9 NNE 5 7 1014.8 - 0.0 - - 10 - - - -
31/08:30am 20.0 N 3 6 1014.9 - 0.0 - - 10 - - - -
31/08:00am 18.6 CALM 0 0 1014.8 - 0.0 - - 10 - - - -
31/07:30am 17.2 CALM 0 0 1014.8 - 0.0 - - 10 - - - -
31/07:00am 15.5 CALM 0 0 1014.5 - 0.0 - - 10 - - - -
31/06:30am 13.2 CALM 0 0 1014.4 - 0.0 - - 10 - - - -
31/06:05am 12.7 CALM 0 0 1014.3 - 0.0 - - 10 - - - -
31/06:00am 12.5 CALM 0 0 1014.2 - 0.0 - - 10 - - - -
31/05:30am 12.8 CALM 0 0 1013.9 - 0.0 - - 0.6 - - - -
31/05:14am 13.2 CALM 0 0 1013.8 - 0.0 - - 5 - - - -
31/05:00am 13.6 CALM 0 0 1013.5 - 0.0 - - 10 - - - -
31/04:54am 13.6 CALM 0 0 1013.5 - 0.0 - - 10 - - - -
31/04:30am 14.1 CALM 0 0 1013.4 - 0.0 - - 6 - - - -
31/04:00am 15.0 CALM 0 0 1013.4 - 0.0 - - 5 - - - -
31/03:53am 14.6 CALM 0 0 1013.4 - 0.0 - - 5 - - - -
31/03:30am 15.1 NW 3 4 1013.4 - 0.0 - - 10 - - - -
31/03:00am 16.5 NNW 3 5 1013.5 - 0.0 - - 10 - - - -
31/02:30am 17.4 N 5 6 1013.7 - 0.0 - - 10 - - - -
31/02:00am 17.4 N 5 6 1013.9 - 0.0 - - 10 - - - -
31/01:30am 16.8 N 3 5 1014.2 - 0.0 - - 10 - - - -
31/01:00am 18.4 N 4 5 1014.4 - 0.0 - - 10 - - - -
31/12:30am 19.2 N 6 8 1014.6 - 0.0 - - 10 - - - -
31/12:00am 19.8 NE 5 7 1014.8 - 0.0 - - 10 - - - -
 
Date/Time
EDT
Temp

°C
Wind Pressure Rain
since 9am
mm
Weather Cloud Vis
km
Sea
Height
m
Swell
Dir
 
Speed
knots
Gust
knots
hPa Trend Height
m
Period
s
Dir
30/11:30pm 20.2 NE 5 6 1014.9 - 0.0 - - 10 - - - -
30/11:00pm 20.5 NE 5 9 1014.9 - 0.0 - - 10 - - - -
30/10:30pm 20.8 NE 5 7 1014.9 - 0.0 - - 10 - - - -
30/10:00pm 20.8 NNE 6 8 1014.7 - 0.0 - - 10 - - - -
30/09:30pm 20.8 NNE 5 8 1014.7 - 0.0 - - 10 - - - -
30/09:00pm 20.9 NNE 6 8 1014.4 - 0.0 - - 10 - - - -
30/08:30pm 21.1 N 7 10 1014.2 - 0.0 - - 10 - - - -
30/08:00pm 21.8 NNE 7 10 1014.0 - 0.0 - - 10 - - - -
30/07:30pm 22.1 NNE 9 11 1013.6 - 0.0 - - 10 - - - -
30/07:00pm 22.5 NNE 9 13 1013.2 - 0.0 - - 10 - - - -
30/06:30pm 22.9 NNE 10 13 1013.0 - 0.0 - - 10 - - - -
30/06:00pm 23.3 NE 8 11 1012.7 - 0.0 - - 10 - - - -
30/05:30pm 23.7 NE 7 11 1012.4 - 0.0 - - 10 - - - -
30/05:00pm 24.4 NE 11 15 1012.1 - 0.0 - - 10 - - - -
30/04:30pm 25.4 NE 11 15 1011.9 - 0.0 - - 10 - - - -
30/04:00pm 25.1 NE 12 16 1011.9 - 0.0 - - 10 - - - -
30/03:30pm 25.1 NE 13 17 1012.0 - 0.0 - - 10 - - - -
30/03:00pm 25.3 ENE 14 17 1012.3 - 0.0 - - 10 - - - -
30/02:30pm 26.3 NE 12 17 1012.5 - 0.0 - - 10 - - - -
30/02:00pm 25.8 NE 13 17 1012.9 - 0.0 - - 10 - - - -
30/01:30pm 25.5 ENE 13 17 1013.4 - 0.0 - - 10 - - - -
30/01:00pm 27.0 ENE 14 18 1013.7 - 0.0 - - 10 - - - -
30/12:30pm 25.9 ENE 13 17 1014.1 - 0.0 - - 10 - - - -
30/12:00pm 25.3 ENE 14 17 1014.5 - 0.0 - - 10 - - - -
30/11:30am 25.0 ENE 11 14 1015.1 - 0.0 - - 10 - - - -
30/11:00am 25.1 ENE 10 14 1015.3 - 0.0 - - 10 - - - -
30/10:30am 24.8 NNE 9 12 1015.7 - 0.0 - - 10 - - - -
30/10:00am 24.0 N 11 14 1016.2 - 0.0 - - 10 - - - -
30/09:30am 23.2 N 12 15 1016.3 - 0.0 - - 10 - - - -
30/09:00am 22.1 N 9 13 1016.4 - 0.0 - - 10 - - - -
30/08:30am 20.9 N 7 11 1016.4 - 0.0 - - 10 - - - -
30/08:00am 19.6 N 7 8 1016.4 - 0.0 - - 10 - - - -
30/07:30am 17.9 N 7 8 1016.3 - 0.0 - - 10 - - - -
30/07:00am 16.5 N 6 7 1016.1 - 0.0 - - 10 - - - -
30/06:30am 15.2 N 6 7 1016.1 - 0.0 - - 10 - - - -
30/06:00am 13.7 N 4 6 1016.0 - 0.0 - - 10 - - - -
30/05:30am 12.6 N 3 4 1015.9 - 0.0 - - 10 - - - -
30/05:00am 13.4 N 5 6 1015.7 - 0.0 - - 10 - - - -
30/04:30am 14.5 N 6 7 1015.6 - 0.0 - - 10 - - - -
30/04:00am 15.1 N 6 7 1015.8 - 0.0 - - 10 - - - -
30/03:30am 15.0 N 5 6 1015.8 - 0.0 - - 10 - - - -
30/03:00am 14.9 N 6 7 1016.0 - 0.0 - - 10 - - - -
30/02:30am 14.3 N 5 6 1016.1 - 0.0 - - 10 - - - -
30/02:00am 13.5 N 4 6 1016.2 - 0.0 - - 10 - - - -
30/01:30am 12.8 CALM 0 0 1016.5 - 0.0 - - 10 - - - -
30/01:00am 12.7 CALM 0 0 1016.9 - 0.0 - - 10 - - - -
30/12:30am 13.1 CALM 0 0 1017.3 - 0.0 - - 10 - - - -
30/12:00am 13.4 CALM 0 0 1017.6 - 0.0 - - 10 - - - -
 
Date/Time
EDT
Temp

°C
Wind Pressure Rain
since 9am
mm
Weather Cloud Vis
km
Sea
Height
m
Swell
Dir
 
Speed
knots
Gust
knots
hPa Trend Height
m
Period
s
Dir
29/11:30pm 13.9 CALM 0 0 1017.9 - 0.0 - - 10 - - - -
29/11:00pm 14.6 CALM 0 0 1017.9 - 0.0 - - 10 - - - -
29/10:30pm 14.2 CALM 0 0 1018.0 - 0.0 - - 10 - - - -
29/10:00pm 14.8 NNW 2 3 1018.1 - 0.0 - - 10 - - - -
29/09:30pm 15.5 NNW 3 4 1018.1 - 0.0 - - 10 - - - -
29/09:00pm 16.1 CALM 0 0 1018.1 - 0.0 - - 10 - - - -
29/08:30pm 17.4 CALM 0 0 1017.8 - 0.0 - - 10 - - - -
29/08:00pm 18.2 CALM 0 0 1017.6 - 0.0 - - 10 - - - -
29/07:30pm 19.4 E 3 4 1017.1 - 0.0 - - 10 - - - -
29/07:00pm 20.2 E 6 7 1016.8 - 0.0 - - 10 - - - -
29/06:30pm 21.2 E 6 9 1016.5 - 0.0 - - 10 - - - -
29/06:00pm 21.6 ESE 8 12 1016.3 - 0.0 - - 10 - - - -
29/05:30pm 22.3 ESE 7 10 1016.1 - 0.0 - - 10 - - - -
29/05:00pm 22.5 E 10 14 1015.9 - 0.0 - - 10 - - - -
29/04:30pm 22.7 ESE 10 14 1015.9 - 0.0 - - 10 - - - -
29/04:00pm 23.1 ESE 9 13 1015.9 - 0.0 - - 10 - - - -
29/03:30pm 23.7 SE 10 15 1015.9 - 0.0 - - 10 - - - -
29/03:00pm 23.1 SSE 11 13 1016.1 - 0.0 - - 10 - - - -
29/02:30pm 23.4 ESE 11 19 1016.2 - 0.0 - Partly cloudy 10 - - - -
29/02:00pm 22.5 ESE 13 16 1016.3 - 0.0 - Partly cloudy 10 - - - -
29/01:30pm 23.6 SE 13 18 1016.4 - 0.0 - - 10 - - - -
29/01:00pm 23.9 SSE 13 18 1016.5 - 0.0 - - 10 - - - -
29/12:30pm 23.6 S 14 21 1016.6 - 0.0 - - 10 - - - -
29/12:00pm 24.1 SSE 15 21 1016.9 - 0.0 - - 10 - - - -
29/11:00am 24.3 S 12 18 1017.3 - 0.0 - - 10 - - - -
29/10:30am 23.8 S 14 17 1017.2 - 0.0 - - 10 - - - -
29/10:00am 23.7 SSW 12 18 1017.1 - 0.0 - - 10 - - - -
29/09:30am 23.1 S 14 19 1016.9 - 0.0 - - 10 - - - -
29/09:00am 22.8 SW 9 11 1016.7 - 0.0 - - 10 - - - -
29/08:30am 21.5 SW 7 8 1016.7 - 0.0 - - 10 - - - -
29/08:00am 18.2 WSW 4 6 1016.5 - 0.0 - - 10 - - - -
29/07:30am 16.3 SW 4 8 1016.3 - 0.0 - - 10 - - - -
29/07:00am 14.4 SW 4 4 1015.8 - 0.0 - - 10 - - - -
29/06:30am 13.3 WSW 5 6 1015.4 - 0.0 - - 10 - - - -
29/06:20am 11.8 WSW 4 6 1015.3 - 0.0 - - 10 - - - -
29/06:00am 10.0 CALM 0 3 1015.1 - 0.0 - - 0.5 - - - -
29/05:47am 10.3 CALM 0 3 1014.9 - 0.0 - - 5 - - - -
29/05:46am 10.4 CALM 0 0 1014.9 - 0.0 - - 8 - - - -
29/05:30am 9.9 CALM 0 0 1014.7 - 0.0 - - 0.7 - - - -
29/05:00am 11.0 CALM 0 3 1014.2 - 0.0 - - 4 - - - -
29/04:30am 10.3 CALM 0 0 1013.9 - 0.0 - - 0.7 - - - -
29/04:20am 10.4 CALM 0 0 1013.9 - 0.0 - - 4 - - - -
29/04:00am 11.5 CALM 0 0 1013.7 - 0.0 - - 10 - - - -
29/03:30am 11.9 CALM 0 4 1013.5 - 0.0 - - 10 - - - -
29/03:13am 12.7 CALM 0 0 1013.5 - 0.0 - - 7 - - - -
29/03:12am 12.8 CALM 0 0 1013.5 - 0.0 - - 7 - - - -
29/03:00am 11.4 CALM 0 0 1013.5 - 0.0 - - 4 - - - -
29/02:52am 12.1 CALM 0 0 1013.4 - 0.0 - - 5 - - - -
29/02:31am 12.1 S 1 4 1013.4 - 0.0 - - 10 - - - -
29/02:30am 12.1 S 1 4 1013.4 - 0.0 - - 10 - - - -
29/02:00am 13.4 CALM 0 0 1013.3 - 0.0 - - 2 - - - -
29/01:35am 13.9 CALM 0 0 1013.3 - 0.0 - - 5 - - - -
29/01:30am 13.6 CALM 0 0 1013.3 - 0.0 - - 9 - - - -
29/01:00am 14.7 CALM 0 0 1013.1 - 0.0 - - 10 - - - -
29/12:30am 13.9 CALM 0 0 1013.3 - 0.0 - - 10 - - - -
29/12:00am 13.8 CALM 0 0 1013.1 - 0.0 - - 10 - - - -
 
Date/Time
EDT
Temp

°C
Wind Pressure Rain
since 9am
mm
Weather Cloud Vis
km
Sea
Height
m
Swell
Dir
 
Speed
knots
Gust
knots
hPa Trend Height
m
Period
s
Dir
28/11:30pm 14.9 CALM 0 0 1012.8 - 0.0 - - 10 - - - -
28/11:00pm 15.0 CALM 0 0 1012.7 - 0.0 - - 10 - - - -
28/10:30pm 15.7 CALM 0 0 1012.5 - 0.0 - - 10 - - - -
28/10:00pm 16.7 N 3 4 1012.2 - 0.0 - - 10 - - - -
28/09:30pm 17.1 SW 3 4 1012.3 - 0.0 - - 10 - - - -
28/09:00pm 18.6 N 1 3 1011.9 - 0.0 - - 10 - - - -
28/08:30pm 19.5 N 5 5 1011.5 - 0.0 - - 10 - - - -
28/08:00pm 20.0 N 5 7 1011.0 - 0.0 - - 10 - - - -
28/07:30pm 21.0 NE 6 7 1010.8 - 0.0 - - 10 - - - -
28/07:00pm 21.6 NE 5 8 1010.5 - 0.0 - - 10 - - - -

Other Formats:

Comma delimited format used in spreadsheet applications
http://www.bom.gov.au/fwo/IDN60701/IDN60701.94786.axf

JavaScript Object Notation format (JSON) in row-major order
http://www.bom.gov.au/fwo/IDN60701/IDN60701.94786.json